Harbor Emperor — WCY6430 — position and weather

sailwx.info

Track history (hours):
 
Tides and Currents Weather Stations Pressure Air Temp Water Temp Dewpoint Dewpoint Depression Visibility Wind Speed Wind Dir Waves Ship Positions

Harbor Emperor

Owner: BLUE & GOLD FLEET, SAN FRANCISCO, CA. More information available from US FCC via Universal Licensing System and Coast Guard Vessel Documentation Center.

Last reported at 2016-Dec-10 18:31 UTC. Time now 2016-Dec-10 18:42 UTC.
Position N 37°49' W 122°25'.

Length 31 m.

Type: Passenger vessel. MMSI: 366985270.

Date/timePositionNaut miles runAvg speedWind from/ knotsBaromVisibWave heightAir tempDewpointWater temp
2016-Dec-10 18:31N 37°49' W 122°25'0 0.0
2016-Dec-10 17:31N 37°49' W 122°25'0 0.0
2016-Dec-10 16:31N 37°49' W 122°25'0 0.0
2016-Dec-10 15:31N 37°49' W 122°25'0 0.0
2016-Dec-10 14:31N 37°49' W 122°25'0 0.0
2016-Dec-10 13:34N 37°49' W 122°25'0 0.0
2016-Dec-10 12:34N 37°49' W 122°25'0 0.0
2016-Dec-10 11:33N 37°49' W 122°25'0 0.0
2016-Dec-10 10:33N 37°49' W 122°25'0 0.0
2016-Dec-10 09:33N 37°49' W 122°25'0 0.0
2016-Dec-10 08:33N 37°49' W 122°25'0 0.0
2016-Dec-10 07:33N 37°49' W 122°25'0 0.0
2016-Dec-10 06:33N 37°49' W 122°25'0 0.0
2016-Dec-10 05:33N 37°49' W 122°25'0 0.0
2016-Dec-10 04:33N 37°49' W 122°25'0 0.0
2016-Dec-10 03:33N 37°49' W 122°25'0 0.0
2016-Dec-10 02:33N 37°49' W 122°25'0 0.0
2016-Dec-10 01:33N 37°49' W 122°25'0 0.2
2016-Dec-10 00:34N 37°49' W 122°25'3 2.8
2016-Dec-09 23:33N 37°49' W 122°28'3 2.8
2016-Dec-09 22:32N 37°49' W 122°25'0 0.0
2016-Dec-09 21:32N 37°49' W 122°25'0 0.0
2016-Dec-09 20:32N 37°49' W 122°25'0 0.0
2016-Dec-09 19:32N 37°49' W 122°25'0 0.0
2016-Dec-09 18:32N 37°49' W 122°25'0 0.0
2016-Dec-09 17:32N 37°49' W 122°25'0 0.0
2016-Dec-09 16:32N 37°49' W 122°25'0 0.0
2016-Dec-09 15:33N 37°49' W 122°25'0 0.0
2016-Dec-09 14:33N 37°49' W 122°25'0 0.0
2016-Dec-09 13:33N 37°49' W 122°25'0 0.0
2016-Dec-09 12:33N 37°49' W 122°25'0 0.0
2016-Dec-09 11:33N 37°49' W 122°25'0 0.0
2016-Dec-09 10:33N 37°49' W 122°25'0 0.0
2016-Dec-09 09:33N 37°49' W 122°25'0 0.0
2016-Dec-09 08:30N 37°49' W 122°25'0 0.0
2016-Dec-09 07:33N 37°49' W 122°25'0 0.0
2016-Dec-09 06:33N 37°49' W 122°25'0 0.0
2016-Dec-09 05:33N 37°49' W 122°25'0 0.0
2016-Dec-09 04:33N 37°49' W 122°25'0 0.0
2016-Dec-09 03:33N 37°49' W 122°25'0 0.0
2016-Dec-09 02:33N 37°49' W 122°25'0 0.0
2016-Dec-09 01:33N 37°49' W 122°25'0 0.2
2016-Dec-09 00:33N 37°49' W 122°25'2 2.5
2016-Dec-08 23:33N 37°49' W 122°28'3 2.6
2016-Dec-08 22:33N 37°49' W 122°25'3 2.7
2016-Dec-08 21:33N 37°49' W 122°28'4 3.5
2016-Dec-08 20:33N 37°48' W 122°24'1 0.9
2016-Dec-08 19:33N 37°49' W 122°25'0 0.2
2016-Dec-08 18:33N 37°49' W 122°25'0 0.0
2016-Dec-08 17:30N 37°49' W 122°25'0 0.0
2016-Dec-08 16:31N 37°49' W 122°25'0 0.0
2016-Dec-08 15:31N 37°49' W 122°25'0 0.0
2016-Dec-08 14:31N 37°49' W 122°25'0 0.0
2016-Dec-08 13:28N 37°49' W 122°25'0 0.0
2016-Dec-08 12:31N 37°49' W 122°25'0 0.0
2016-Dec-08 11:31N 37°49' W 122°25'0 0.0
2016-Dec-08 10:31N 37°49' W 122°25'0 0.0
2016-Dec-08 09:31N 37°49' W 122°25'0 0.0
2016-Dec-08 08:31N 37°49' W 122°25'0 0.0
2016-Dec-08 07:31N 37°49' W 122°25'0 0.0
2016-Dec-08 06:31N 37°49' W 122°25'0 0.0
2016-Dec-08 05:31N 37°49' W 122°25'0 0.0
2016-Dec-08 04:31N 37°49' W 122°25'0 0.0
2016-Dec-08 03:31N 37°49' W 122°25'0 0.0
2016-Dec-08 02:31N 37°49' W 122°25'0 0.0
2016-Dec-08 01:31N 37°49' W 122°25'0 0.1
2016-Dec-08 00:33N 37°49' W 122°25'2 2.3
2016-Dec-07 23:34N 37°49' W 122°28'2 2.3
2016-Dec-07 22:33N 37°49' W 122°25'3 2.9
2016-Dec-07 21:34N 37°49' W 122°28'3 3.4
2016-Dec-07 20:34N 37°49' W 122°24'1 0.6
2016-Dec-07 19:33N 37°49' W 122°25'3 3.1
2016-Dec-07 18:33N 37°49' W 122°29'3 0.2
2016-Dec-07 01:18N 37°49' W 122°24'0 0.3
2016-Dec-07 00:33N 37°49' W 122°25'3 2.6
2016-Dec-06 23:33N 37°49' W 122°28'3 2.6
2016-Dec-06 22:33N 37°49' W 122°25'2 2.3
2016-Dec-06 21:33N 37°49' W 122°28'2 2.3
2016-Dec-06 20:33N 37°50' W 122°25'3 1.3
2016-Dec-06 18:33N 37°49' W 122°28'3 2.5
2016-Dec-06 17:29N 37°49' W 122°25'0 0.0
2016-Dec-06 16:29N 37°49' W 122°25'0 0.0
2016-Dec-06 15:32N 37°49' W 122°25'0 0.0
2016-Dec-06 14:29N 37°49' W 122°25'0 0.0
2016-Dec-06 13:32N 37°49' W 122°25'0 0.0
2016-Dec-06 12:32N 37°49' W 122°25'0 0.0
2016-Dec-06 11:32N 37°49' W 122°25'0 0.0
2016-Dec-06 10:32N 37°49' W 122°25'0 0.0
2016-Dec-06 09:32N 37°49' W 122°25'0 0.0
2016-Dec-06 08:32N 37°49' W 122°25'0 0.0
2016-Dec-06 07:32N 37°49' W 122°25'0 0.0
2016-Dec-06 06:32N 37°49' W 122°25'0 0.0
2016-Dec-06 05:32N 37°49' W 122°25'0 0.0
2016-Dec-06 04:32N 37°49' W 122°25'0 0.0
2016-Dec-06 03:32N 37°49' W 122°25'0 0.0
2016-Dec-06 02:32N 37°49' W 122°25'0 0.0
2016-Dec-06 01:32N 37°49' W 122°25'0 0.0
2016-Dec-06 00:32N 37°49' W 122°25'0 0.0
2016-Dec-05 23:32N 37°49' W 122°25'0 0.0
2016-Dec-05 22:32N 37°49' W 122°25'0 0.0
2016-Dec-05 21:32N 37°49' W 122°25'0 0.0
2016-Dec-05 20:32N 37°49' W 122°25'0 0.0
2016-Dec-05 19:32N 37°49' W 122°25'0 0.0
2016-Dec-05 18:32N 37°49' W 122°25'0 0.0
2016-Dec-05 17:32N 37°49' W 122°25'0 0.0
2016-Dec-05 16:32N 37°49' W 122°25'0 0.0
2016-Dec-05 15:32N 37°49' W 122°25'0 0.0
2016-Dec-05 14:32N 37°49' W 122°25'0 0.0
2016-Dec-05 13:32N 37°49' W 122°25'0 0.0
2016-Dec-05 12:32N 37°49' W 122°25'0 0.0
2016-Dec-05 11:32N 37°49' W 122°25'0 0.0
2016-Dec-05 10:32N 37°49' W 122°25'0 0.0
2016-Dec-05 09:32N 37°49' W 122°25'0 0.0
2016-Dec-05 08:32N 37°49' W 122°25'0 0.0
2016-Dec-05 07:32N 37°49' W 122°25'0 0.0
2016-Dec-05 06:32N 37°49' W 122°25'0 0.0
2016-Dec-05 05:32N 37°49' W 122°25'0 0.0
2016-Dec-05 04:32N 37°49' W 122°25'0 0.0
2016-Dec-05 03:32N 37°49' W 122°25'0 0.0
2016-Dec-05 02:32N 37°49' W 122°25'0 0.0
2016-Dec-05 01:32N 37°49' W 122°25'0 0.2
2016-Dec-05 00:33N 37°49' W 122°25'3 2.9
2016-Dec-04 23:33N 37°49' W 122°28'3 3.0
2016-Dec-04 22:33N 37°49' W 122°25'2 2.3
2016-Dec-04 21:33N 37°49' W 122°27'3 3.1
2016-Dec-04 20:33N 37°48' W 122°24'1 0.9
2016-Dec-04 19:33N 37°49' W 122°25'3 2.5
2016-Dec-04 18:33N 37°49' W 122°28'3 0.2
2016-Dec-04 03:34N 37°49' W 122°24'7 6.5
2016-Dec-04 02:33N 37°47' W 122°16'1 0.6
2016-Dec-04 01:33N 37°47' W 122°16'6 6.4
2016-Dec-04 00:33N 37°49' W 122°24'1 0.9
2016-Dec-03 23:33N 37°49' W 122°25'0 0.0
2016-Dec-03 22:33N 37°49' W 122°25'3 2.6
2016-Dec-03 21:33N 37°49' W 122°28'3 3.2
2016-Dec-03 20:33N 37°49' W 122°24'1 0.7
2016-Dec-03 19:33N 37°49' W 122°25'2 2.5
2016-Dec-03 18:33N 37°49' W 122°28'3 2.6
2016-Dec-03 17:33N 37°49' W 122°25'0 0.0
2016-Dec-03 16:33N 37°49' W 122°25'0 0.0
2016-Dec-03 15:33N 37°49' W 122°25'0 0.0
2016-Dec-03 14:33N 37°49' W 122°25'0 0.0
2016-Dec-03 13:30N 37°49' W 122°25'0 0.0
2016-Dec-03 12:33N 37°49' W 122°25'0 0.0
2016-Dec-03 11:33N 37°49' W 122°25'0 0.0
2016-Dec-03 10:33N 37°49' W 122°25'0 0.0
2016-Dec-03 09:33N 37°49' W 122°25'0 0.0
2016-Dec-03 08:33N 37°49' W 122°25'0 0.0
2016-Dec-03 07:33N 37°49' W 122°25'0 0.0
2016-Dec-03 06:33N 37°49' W 122°25'0 0.0
2016-Dec-03 05:33N 37°49' W 122°25'0 0.0
2016-Dec-03 04:33N 37°49' W 122°25'0 0.0
2016-Dec-03 03:33N 37°49' W 122°25'0 0.0
2016-Dec-03 02:33N 37°49' W 122°25'0 0.0
2016-Dec-03 01:33N 37°49' W 122°25'0 0.1
2016-Dec-03 00:33N 37°49' W 122°25'3 3.2
2016-Dec-02 23:34N 37°49' W 122°29'3 3.3
2016-Dec-02 22:33N 37°49' W 122°25'3 3.0
2016-Dec-02 21:34N 37°49' W 122°28'4 3.8
2016-Dec-02 20:33N 37°48' W 122°24'1 0.8
2016-Dec-02 19:34N 37°49' W 122°25'2 2.3
2016-Dec-02 18:33N 37°49' W 122°28'2 2.3
2016-Dec-02 17:32N 37°49' W 122°25'0 0.0
2016-Dec-02 16:32N 37°49' W 122°25'0 0.0
2016-Dec-02 15:32N 37°49' W 122°25'0 0.0
2016-Dec-02 14:32N 37°49' W 122°25'0 0.0
2016-Dec-02 13:32N 37°49' W 122°25'0 0.0
2016-Dec-02 12:32N 37°49' W 122°25'0 0.0
2016-Dec-02 11:32N 37°49' W 122°25'0 0.0
2016-Dec-02 10:32N 37°49' W 122°25'0 0.0
2016-Dec-02 09:32N 37°49' W 122°25'0 0.0
2016-Dec-02 08:32N 37°49' W 122°25'0 0.0
2016-Dec-02 07:32N 37°49' W 122°25'0 0.0
2016-Dec-02 06:32N 37°49' W 122°25'0 0.0
2016-Dec-02 05:32N 37°49' W 122°25'0 0.0
2016-Dec-02 04:32N 37°49' W 122°25'0 0.0
2016-Dec-02 03:29N 37°49' W 122°25'0 0.0
2016-Dec-02 02:32N 37°49' W 122°25'0 0.0
2016-Dec-02 01:32N 37°49' W 122°25'0 0.0
2016-Dec-02 00:32N 37°49' W 122°25'0 0.0
2016-Dec-01 23:32N 37°49' W 122°25'0 0.0
2016-Dec-01 22:32N 37°49' W 122°25'3 2.6
2016-Dec-01 21:33N 37°49' W 122°28'3 2.8
2016-Dec-01 20:33N 37°49' W 122°24'1 0.6
2016-Dec-01 19:33N 37°49' W 122°25'2 1.7
2016-Dec-01 18:33N 37°49' W 122°27'2 1.7
2016-Dec-01 17:33N 37°49' W 122°25'0 0.0
2016-Dec-01 16:33N 37°49' W 122°25'0 0.0
2016-Dec-01 15:33N 37°49' W 122°25'0 0.0
2016-Dec-01 14:33N 37°49' W 122°25'0 0.0
2016-Dec-01 13:33N 37°49' W 122°25'0 0.0
2016-Dec-01 12:33N 37°49' W 122°25'0 0.0
2016-Dec-01 11:33N 37°49' W 122°25'0 0.0
2016-Dec-01 10:33N 37°49' W 122°25'0 0.0
2016-Dec-01 09:33N 37°49' W 122°25'0 0.0
2016-Dec-01 08:33N 37°49' W 122°25'0 0.0
2016-Dec-01 07:33N 37°49' W 122°25'0 0.0
2016-Dec-01 06:33N 37°49' W 122°25'0 0.0
2016-Dec-01 05:33N 37°49' W 122°25'0 0.0
2016-Dec-01 04:33N 37°49' W 122°25'0 0.0
2016-Dec-01 03:33N 37°49' W 122°25'0 0.0
2016-Dec-01 02:33N 37°49' W 122°25'0 0.0
2016-Dec-01 01:29N 37°49' W 122°25'0 0.1
2016-Dec-01 00:33N 37°49' W 122°25'3 3.3
2016-Nov-30 23:34N 37°49' W 122°29'3 3.4
2016-Nov-30 22:33N 37°49' W 122°25'3 3.3
2016-Nov-30 21:34N 37°49' W 122°29'4 3.6
2016-Nov-30 20:33N 37°49' W 122°24'0 0.4
2016-Nov-30 19:34N 37°49' W 122°25'3 2.6
2016-Nov-30 18:33N 37°49' W 122°28'  
Track history (hours):
 
Tides and Currents Weather Stations Pressure Air Temp Water Temp Dewpoint Dewpoint Depression Visibility Wind Speed Wind Dir Waves Ship Positions

Harbor Emperor

Owner: BLUE & GOLD FLEET, SAN FRANCISCO, CA. More information available from US FCC via Universal Licensing System and Coast Guard Vessel Documentation Center.

Last reported at 2016-Dec-10 18:31 UTC. Time now 2016-Dec-10 18:42 UTC.
Position N 37°49' W 122°25'.

Length 31 m.

Type: Passenger vessel. MMSI: 366985270.

Date/timePositionNaut miles runAvg speedWind from/ knotsBaromVisibWave heightAir tempDewpointWater temp
2016-Dec-10 18:31N 37°49' W 122°25'0 0.0
2016-Dec-10 17:31N 37°49' W 122°25'0 0.0
2016-Dec-10 16:31N 37°49' W 122°25'0 0.0
2016-Dec-10 15:31N 37°49' W 122°25'0 0.0
2016-Dec-10 14:31N 37°49' W 122°25'0 0.0
2016-Dec-10 13:34N 37°49' W 122°25'0 0.0
2016-Dec-10 12:34N 37°49' W 122°25'0 0.0
2016-Dec-10 11:33N 37°49' W 122°25'0 0.0
2016-Dec-10 10:33N 37°49' W 122°25'0 0.0
2016-Dec-10 09:33N 37°49' W 122°25'0 0.0
2016-Dec-10 08:33N 37°49' W 122°25'0 0.0
2016-Dec-10 07:33N 37°49' W 122°25'0 0.0
2016-Dec-10 06:33N 37°49' W 122°25'0 0.0
2016-Dec-10 05:33N 37°49' W 122°25'0 0.0
2016-Dec-10 04:33N 37°49' W 122°25'0 0.0
2016-Dec-10 03:33N 37°49' W 122°25'0 0.0
2016-Dec-10 02:33N 37°49' W 122°25'0 0.0
2016-Dec-10 01:33N 37°49' W 122°25'0 0.2
2016-Dec-10 00:34N 37°49' W 122°25'3 2.8
2016-Dec-09 23:33N 37°49' W 122°28'3 2.8
2016-Dec-09 22:32N 37°49' W 122°25'0 0.0
2016-Dec-09 21:32N 37°49' W 122°25'0 0.0
2016-Dec-09 20:32N 37°49' W 122°25'0 0.0
2016-Dec-09 19:32N 37°49' W 122°25'0 0.0
2016-Dec-09 18:32N 37°49' W 122°25'0 0.0
2016-Dec-09 17:32N 37°49' W 122°25'0 0.0
2016-Dec-09 16:32N 37°49' W 122°25'0 0.0
2016-Dec-09 15:33N 37°49' W 122°25'0 0.0
2016-Dec-09 14:33N 37°49' W 122°25'0 0.0
2016-Dec-09 13:33N 37°49' W 122°25'0 0.0
2016-Dec-09 12:33N 37°49' W 122°25'0 0.0
2016-Dec-09 11:33N 37°49' W 122°25'0 0.0
2016-Dec-09 10:33N 37°49' W 122°25'0 0.0
2016-Dec-09 09:33N 37°49' W 122°25'0 0.0
2016-Dec-09 08:30N 37°49' W 122°25'0 0.0
2016-Dec-09 07:33N 37°49' W 122°25'0 0.0
2016-Dec-09 06:33N 37°49' W 122°25'0 0.0
2016-Dec-09 05:33N 37°49' W 122°25'0 0.0
2016-Dec-09 04:33N 37°49' W 122°25'0 0.0
2016-Dec-09 03:33N 37°49' W 122°25'0 0.0
2016-Dec-09 02:33N 37°49' W 122°25'0 0.0
2016-Dec-09 01:33N 37°49' W 122°25'0 0.2
2016-Dec-09 00:33N 37°49' W 122°25'2 2.5
2016-Dec-08 23:33N 37°49' W 122°28'3 2.6
2016-Dec-08 22:33N 37°49' W 122°25'3 2.7
2016-Dec-08 21:33N 37°49' W 122°28'4 3.5
2016-Dec-08 20:33N 37°48' W 122°24'1 0.9
2016-Dec-08 19:33N 37°49' W 122°25'0 0.2
2016-Dec-08 18:33N 37°49' W 122°25'0 0.0
2016-Dec-08 17:30N 37°49' W 122°25'0 0.0
2016-Dec-08 16:31N 37°49' W 122°25'0 0.0
2016-Dec-08 15:31N 37°49' W 122°25'0 0.0
2016-Dec-08 14:31N 37°49' W 122°25'0 0.0
2016-Dec-08 13:28N 37°49' W 122°25'0 0.0
2016-Dec-08 12:31N 37°49' W 122°25'0 0.0
2016-Dec-08 11:31N 37°49' W 122°25'0 0.0
2016-Dec-08 10:31N 37°49' W 122°25'0 0.0
2016-Dec-08 09:31N 37°49' W 122°25'0 0.0
2016-Dec-08 08:31N 37°49' W 122°25'0 0.0
2016-Dec-08 07:31N 37°49' W 122°25'0 0.0
2016-Dec-08 06:31N 37°49' W 122°25'0 0.0
2016-Dec-08 05:31N 37°49' W 122°25'0 0.0
2016-Dec-08 04:31N 37°49' W 122°25'0 0.0
2016-Dec-08 03:31N 37°49' W 122°25'0 0.0
2016-Dec-08 02:31N 37°49' W 122°25'0 0.0
2016-Dec-08 01:31N 37°49' W 122°25'0 0.1
2016-Dec-08 00:33N 37°49' W 122°25'2 2.3
2016-Dec-07 23:34N 37°49' W 122°28'2 2.3
2016-Dec-07 22:33N 37°49' W 122°25'3 2.9
2016-Dec-07 21:34N 37°49' W 122°28'3 3.4
2016-Dec-07 20:34N 37°49' W 122°24'1 0.6
2016-Dec-07 19:33N 37°49' W 122°25'3 3.1
2016-Dec-07 18:33N 37°49' W 122°29'3 0.2
2016-Dec-07 01:18N 37°49' W 122°24'0 0.3
2016-Dec-07 00:33N 37°49' W 122°25'3 2.6
2016-Dec-06 23:33N 37°49' W 122°28'3 2.6
2016-Dec-06 22:33N 37°49' W 122°25'2 2.3
2016-Dec-06 21:33N 37°49' W 122°28'2 2.3
2016-Dec-06 20:33N 37°50' W 122°25'3 1.3
2016-Dec-06 18:33N 37°49' W 122°28'3 2.5
2016-Dec-06 17:29N 37°49' W 122°25'0 0.0
2016-Dec-06 16:29N 37°49' W 122°25'0 0.0
2016-Dec-06 15:32N 37°49' W 122°25'0 0.0
2016-Dec-06 14:29N 37°49' W 122°25'0 0.0
2016-Dec-06 13:32N 37°49' W 122°25'0 0.0
2016-Dec-06 12:32N 37°49' W 122°25'0 0.0
2016-Dec-06 11:32N 37°49' W 122°25'0 0.0
2016-Dec-06 10:32N 37°49' W 122°25'0 0.0
2016-Dec-06 09:32N 37°49' W 122°25'0 0.0
2016-Dec-06 08:32N 37°49' W 122°25'0 0.0
2016-Dec-06 07:32N 37°49' W 122°25'0 0.0
2016-Dec-06 06:32N 37°49' W 122°25'0 0.0
2016-Dec-06 05:32N 37°49' W 122°25'0 0.0
2016-Dec-06 04:32N 37°49' W 122°25'0 0.0
2016-Dec-06 03:32N 37°49' W 122°25'0 0.0
2016-Dec-06 02:32N 37°49' W 122°25'0 0.0
2016-Dec-06 01:32N 37°49' W 122°25'0 0.0
2016-Dec-06 00:32N 37°49' W 122°25'0 0.0
2016-Dec-05 23:32N 37°49' W 122°25'0 0.0
2016-Dec-05 22:32N 37°49' W 122°25'0 0.0
2016-Dec-05 21:32N 37°49' W 122°25'0 0.0
2016-Dec-05 20:32N 37°49' W 122°25'0 0.0
2016-Dec-05 19:32N 37°49' W 122°25'0 0.0
2016-Dec-05 18:32N 37°49' W 122°25'0 0.0
2016-Dec-05 17:32N 37°49' W 122°25'0 0.0
2016-Dec-05 16:32N 37°49' W 122°25'0 0.0
2016-Dec-05 15:32N 37°49' W 122°25'0 0.0
2016-Dec-05 14:32N 37°49' W 122°25'0 0.0
2016-Dec-05 13:32N 37°49' W 122°25'0 0.0
2016-Dec-05 12:32N 37°49' W 122°25'0 0.0
2016-Dec-05 11:32N 37°49' W 122°25'0 0.0
2016-Dec-05 10:32N 37°49' W 122°25'0 0.0
2016-Dec-05 09:32N 37°49' W 122°25'0 0.0
2016-Dec-05 08:32N 37°49' W 122°25'0 0.0
2016-Dec-05 07:32N 37°49' W 122°25'0 0.0
2016-Dec-05 06:32N 37°49' W 122°25'0 0.0
2016-Dec-05 05:32N 37°49' W 122°25'0 0.0
2016-Dec-05 04:32N 37°49' W 122°25'0 0.0
2016-Dec-05 03:32N 37°49' W 122°25'0 0.0
2016-Dec-05 02:32N 37°49' W 122°25'0 0.0
2016-Dec-05 01:32N 37°49' W 122°25'0 0.2
2016-Dec-05 00:33N 37°49' W 122°25'3 2.9
2016-Dec-04 23:33N 37°49' W 122°28'3 3.0
2016-Dec-04 22:33N 37°49' W 122°25'2 2.3
2016-Dec-04 21:33N 37°49' W 122°27'3 3.1
2016-Dec-04 20:33N 37°48' W 122°24'1 0.9
2016-Dec-04 19:33N 37°49' W 122°25'3 2.5
2016-Dec-04 18:33N 37°49' W 122°28'3 0.2
2016-Dec-04 03:34N 37°49' W 122°24'7 6.5
2016-Dec-04 02:33N 37°47' W 122°16'1 0.6
2016-Dec-04 01:33N 37°47' W 122°16'6 6.4
2016-Dec-04 00:33N 37°49' W 122°24'1 0.9
2016-Dec-03 23:33N 37°49' W 122°25'0 0.0
2016-Dec-03 22:33N 37°49' W 122°25'3 2.6
2016-Dec-03 21:33N 37°49' W 122°28'3 3.2
2016-Dec-03 20:33N 37°49' W 122°24'1 0.7
2016-Dec-03 19:33N 37°49' W 122°25'2 2.5
2016-Dec-03 18:33N 37°49' W 122°28'3 2.6
2016-Dec-03 17:33N 37°49' W 122°25'0 0.0
2016-Dec-03 16:33N 37°49' W 122°25'0 0.0
2016-Dec-03 15:33N 37°49' W 122°25'0 0.0
2016-Dec-03 14:33N 37°49' W 122°25'0 0.0
2016-Dec-03 13:30N 37°49' W 122°25'0 0.0
2016-Dec-03 12:33N 37°49' W 122°25'0 0.0
2016-Dec-03 11:33N 37°49' W 122°25'0 0.0
2016-Dec-03 10:33N 37°49' W 122°25'0 0.0
2016-Dec-03 09:33N 37°49' W 122°25'0 0.0
2016-Dec-03 08:33N 37°49' W 122°25'0 0.0
2016-Dec-03 07:33N 37°49' W 122°25'0 0.0
2016-Dec-03 06:33N 37°49' W 122°25'0 0.0
2016-Dec-03 05:33N 37°49' W 122°25'0 0.0
2016-Dec-03 04:33N 37°49' W 122°25'0 0.0
2016-Dec-03 03:33N 37°49' W 122°25'0 0.0
2016-Dec-03 02:33N 37°49' W 122°25'0 0.0
2016-Dec-03 01:33N 37°49' W 122°25'0 0.1
2016-Dec-03 00:33N 37°49' W 122°25'3 3.2
2016-Dec-02 23:34N 37°49' W 122°29'3 3.3
2016-Dec-02 22:33N 37°49' W 122°25'3 3.0
2016-Dec-02 21:34N 37°49' W 122°28'4 3.8
2016-Dec-02 20:33N 37°48' W 122°24'1 0.8
2016-Dec-02 19:34N 37°49' W 122°25'2 2.3
2016-Dec-02 18:33N 37°49' W 122°28'2 2.3
2016-Dec-02 17:32N 37°49' W 122°25'0 0.0
2016-Dec-02 16:32N 37°49' W 122°25'0 0.0
2016-Dec-02 15:32N 37°49' W 122°25'0 0.0
2016-Dec-02 14:32N 37°49' W 122°25'0 0.0
2016-Dec-02 13:32N 37°49' W 122°25'0 0.0
2016-Dec-02 12:32N 37°49' W 122°25'0 0.0
2016-Dec-02 11:32N 37°49' W 122°25'0 0.0
2016-Dec-02 10:32N 37°49' W 122°25'0 0.0
2016-Dec-02 09:32N 37°49' W 122°25'0 0.0
2016-Dec-02 08:32N 37°49' W 122°25'0 0.0
2016-Dec-02 07:32N 37°49' W 122°25'0 0.0
2016-Dec-02 06:32N 37°49' W 122°25'0 0.0
2016-Dec-02 05:32N 37°49' W 122°25'0 0.0
2016-Dec-02 04:32N 37°49' W 122°25'0 0.0
2016-Dec-02 03:29N 37°49' W 122°25'0 0.0
2016-Dec-02 02:32N 37°49' W 122°25'0 0.0
2016-Dec-02 01:32N 37°49' W 122°25'0 0.0
2016-Dec-02 00:32N 37°49' W 122°25'0 0.0
2016-Dec-01 23:32N 37°49' W 122°25'0 0.0
2016-Dec-01 22:32N 37°49' W 122°25'3 2.6
2016-Dec-01 21:33N 37°49' W 122°28'3 2.8
2016-Dec-01 20:33N 37°49' W 122°24'1 0.6
2016-Dec-01 19:33N 37°49' W 122°25'2 1.7
2016-Dec-01 18:33N 37°49' W 122°27'2 1.7
2016-Dec-01 17:33N 37°49' W 122°25'0 0.0
2016-Dec-01 16:33N 37°49' W 122°25'0 0.0
2016-Dec-01 15:33N 37°49' W 122°25'0 0.0
2016-Dec-01 14:33N 37°49' W 122°25'0 0.0
2016-Dec-01 13:33N 37°49' W 122°25'0 0.0
2016-Dec-01 12:33N 37°49' W 122°25'0 0.0
2016-Dec-01 11:33N 37°49' W 122°25'0 0.0
2016-Dec-01 10:33N 37°49' W 122°25'0 0.0
2016-Dec-01 09:33N 37°49' W 122°25'0 0.0
2016-Dec-01 08:33N 37°49' W 122°25'0 0.0
2016-Dec-01 07:33N 37°49' W 122°25'0 0.0
2016-Dec-01 06:33N 37°49' W 122°25'0 0.0
2016-Dec-01 05:33N 37°49' W 122°25'0 0.0
2016-Dec-01 04:33N 37°49' W 122°25'0 0.0
2016-Dec-01 03:33N 37°49' W 122°25'0 0.0
2016-Dec-01 02:33N 37°49' W 122°25'0 0.0
2016-Dec-01 01:29N 37°49' W 122°25'0 0.1
2016-Dec-01 00:33N 37°49' W 122°25'3 3.3
2016-Nov-30 23:34N 37°49' W 122°29'3 3.4
2016-Nov-30 22:33N 37°49' W 122°25'3 3.3
2016-Nov-30 21:34N 37°49' W 122°29'4 3.6
2016-Nov-30 20:33N 37°49' W 122°24'0 0.4
2016-Nov-30 19:34N 37°49' W 122°25'3 2.6
2016-Nov-30 18:33N 37°49' W 122°28'  

Dump ship's entire track history